KDPG/DPG METAR and TAF weather

Enter ICAO airport designator
Station Type Date Time Source
KDPG METAR 2024/04/17 13:55 UTC NOAA

KDPG 171355Z 05002KT 40SM FEW060 SCT090 SCT200 09/04 A3002 RMK SLP136 T00870040


Station Type Date Time Source
KDPG Decoded METAR 2024/04/17 13:55 UTC NOAA

Dugway Proving Grounds, UT, United States (KDPG) 40-10N 112-56W 1325M
Apr 17, 2024 - 09:55 AM EDT / 2024.04.17 1355 UTC
Wind: from the NE (050 degrees) at 2 MPH (2 KT):0
Visibility: 40 mile(s):0
Sky conditions: partly cloudy
Temperature: 47.7 F (8.7 C)
Dew Point: 39.2 F (4.0 C)
Relative Humidity: 72%
Pressure (altimeter): 30.02 in. Hg (1016 hPa)
ob: KDPG 171355Z 05002KT 40SM FEW060 SCT090 SCT200 09/04 A3002 RMK SLP136 T00870040
cycle: 14

Station Type Date Time Source
KDPG TAF UTC NOAA

Error!

Example: see airport list